Time;durP1;ratioP1;P1;durP2;ratioP2;P2;SDS_P1;SDS_P2;PMS_P1;PMS_P2;Temp;Humidity;BMP_temperature;BMP_pressure;BME280_temperature;BME280_humidity;BME280_pressure;Samples;Min_cycle;Max_cycle;Signal;HPM_P1;HPM_P2
2023/07/06 00:01:58;;;;;;;9.88;2.75;;;;;;;19.12;69.54;101585.88;4993894;28;20447;-43
2023/07/06 00:04:23;;;;;;;10.38;3.20;;;;;;;19.16;69.46;101584.94;4992559;28;20060;-43
2023/07/06 00:06:49;;;;;;;10.38;2.83;;;;;;;19.10;69.96;101582.34;4993460;28;20146;-42
2023/07/06 00:09:14;;;;;;;11.57;2.92;;;;;;;19.15;69.82;101583.22;4993367;28;20050;-47
2023/07/06 00:11:41;;;;;;;9.32;2.80;;;;;;;19.16;69.85;101582.28;4993257;28;20041;-43
2023/07/06 00:14:09;;;;;;;10.77;2.67;;;;;;;19.16;69.90;101580.53;4994534;28;20030;-48
2023/07/06 00:16:35;;;;;;;9.65;2.50;;;;;;;19.21;69.98;101580.50;4995693;28;20058;-44
2023/07/06 00:19:01;;;;;;;10.25;2.88;;;;;;;19.23;70.18;101586.63;4997895;28;20041;-48
2023/07/06 00:21:30;;;;;;;10.32;2.47;;;;;;;19.35;69.84;101589.13;4996257;28;20034;-44
2023/07/06 00:23:55;;;;;;;8.32;2.38;;;;;;;19.33;69.80;101586.50;4993374;28;20038;-40
2023/07/06 00:26:21;;;;;;;9.57;2.78;;;;;;;19.45;69.56;101588.16;4993462;28;20421;-45
2023/07/06 00:28:50;;;;;;;12.40;2.90;;;;;;;19.42;69.77;101583.75;4992109;28;20026;-43
2023/07/06 00:31:21;;;;;;;10.52;2.60;;;;;;;19.57;69.35;101584.53;4993239;28;20117;-44
2023/07/06 00:33:50;;;;;;;10.88;2.83;;;;;;;19.59;68.90;101590.66;4992917;28;20034;-45
2023/07/06 00:36:15;;;;;;;11.40;2.90;;;;;;;19.53;69.31;101588.06;4992985;28;20030;-48
2023/07/06 00:38:41;;;;;;;10.20;3.08;;;;;;;19.47;69.17;101580.22;4991846;28;20354;-44
2023/07/06 00:41:08;;;;;;;10.00;2.90;;;;;;;19.51;68.98;101584.59;4992698;28;20500;-44
2023/07/06 00:43:54;;;;;;;13.52;3.25;;;;;;;19.30;69.82;101588.31;4992365;28;20038;-46
2023/07/06 00:46:21;;;;;;;12.05;3.42;;;;;;;19.38;69.60;101591.75;4988231;28;20046;-43
2023/07/06 00:48:49;;;;;;;14.82;3.70;;;;;;;19.31;69.86;101595.34;4998699;28;20155;-45
2023/07/06 00:51:23;;;;;;;14.73;3.38;;;;;;;19.41;69.76;101589.94;4991829;28;20113;-42
2023/07/06 00:53:56;;;;;;;13.17;3.33;;;;;;;19.38;70.28;101587.34;4992477;28;20046;-43
2023/07/06 00:56:25;;;;;;;11.82;3.60;;;;;;;19.47;69.90;101590.78;4993144;28;20045;-42
2023/07/06 00:58:55;;;;;;;12.60;3.35;;;;;;;19.50;69.55;101591.66;4991558;28;20065;-45
2023/07/06 01:01:23;;;;;;;9.50;2.72;;;;;;;19.46;69.62;101589.06;4991923;28;20042;-43
2023/07/06 01:03:53;;;;;;;9.18;3.13;;;;;;;19.49;69.21;101586.38;4992621;28;20037;-44
2023/07/06 01:06:24;;;;;;;8.98;2.55;;;;;;;19.46;69.25;101589.91;4992357;28;20034;-43
2023/07/06 01:08:50;;;;;;;7.50;2.33;;;;;;;19.44;69.37;101589.03;4991292;28;20030;-48
2023/07/06 01:11:16;;;;;;;8.13;2.30;;;;;;;19.42;69.22;101580.25;4992351;28;20121;-45
2023/07/06 01:13:49;;;;;;;7.60;2.40;;;;;;;19.46;69.19;101576.69;4991910;28;20129;-43
2023/07/06 01:16:30;;;;;;;7.88;2.40;;;;;;;19.43;69.28;101582.00;4992460;28;20555;-45
2023/07/06 01:19:24;;;;;;;10.70;2.53;;;;;;;19.43;69.19;101588.16;4991433;28;20039;-45
2023/07/06 01:22:12;;;;;;;9.00;2.72;;;;;;;19.38;69.41;101582.06;4992085;28;20049;-43
2023/07/06 01:24:38;;;;;;;12.38;2.50;;;;;;;19.36;69.39;101586.47;4992312;28;20041;-43
2023/07/06 01:27:42;;;;;;;11.48;2.85;;;;;;;19.31;69.81;101587.44;4991997;28;20038;-45
2023/07/06 01:30:37;;;;;;;9.98;2.70;;;;;;;19.32;69.72;101590.06;4991954;28;20077;-44
2023/07/06 01:33:10;;;;;;;9.80;2.83;;;;;;;19.30;69.96;101585.66;4981249;28;20046;-49
2023/07/06 01:35:50;;;;;;;8.32;2.45;;;;;;;19.32;69.75;101590.06;4991129;28;20035;-43
2023/07/06 01:38:16;;;;;;;8.30;2.67;;;;;;;19.38;69.67;101587.34;4991943;28;20070;-43
2023/07/06 01:40:42;;;;;;;13.57;3.10;;;;;;;19.31;69.86;101577.72;4991837;28;20523;-43
2023/07/06 01:43:07;;;;;;;9.93;2.53;;;;;;;19.36;69.67;101583.84;4991888;28;20066;-45
2023/07/06 01:45:35;;;;;;;11.30;3.10;;;;;;;19.28;69.51;101584.81;4991707;28;20058;-44
2023/07/06 01:48:07;;;;;;;8.93;2.58;;;;;;;19.27;69.64;101580.44;4991940;28;20036;-46
2023/07/06 01:50:50;;;;;;;11.25;2.70;;;;;;;19.20;69.80;101579.63;4991196;28;20045;-44
2023/07/06 01:53:30;;;;;;;9.43;2.70;;;;;;;19.17;69.79;101582.28;4991535;28;20034;-47
2023/07/06 01:56:21;;;;;;;9.07;2.67;;;;;;;19.16;69.63;101588.47;4991372;28;20121;-44
2023/07/06 01:58:58;;;;;;;8.52;2.67;;;;;;;19.13;69.78;101583.22;4990527;28;20026;-44
2023/07/06 02:01:28;;;;;;;11.77;3.08;;;;;;;19.08;70.19;101589.44;4991501;28;20057;-45
2023/07/06 02:03:55;;;;;;;11.70;3.03;;;;;;;18.93;71.06;101590.47;4990870;28;20054;-48
2023/07/06 02:06:22;;;;;;;11.93;3.05;;;;;;;19.03;70.90;101593.00;4991261;28;20133;-47
2023/07/06 02:08:49;;;;;;;13.50;3.38;;;;;;;18.98;71.02;101589.53;4990446;28;20308;-47
2023/07/06 02:11:18;;;;;;;9.60;2.72;;;;;;;19.03;70.91;101584.19;4991513;28;20034;-46
2023/07/06 02:13:43;;;;;;;10.05;2.75;;;;;;;19.03;71.14;101590.34;4993234;28;20030;-45
2023/07/06 02:16:09;;;;;;;11.88;2.92;;;;;;;19.09;70.75;101586.75;4995282;28;20404;-44
2023/07/06 02:18:35;;;;;;;10.60;2.90;;;;;;;19.05;70.97;101591.22;4993907;28;20042;-45
2023/07/06 02:21:01;;;;;;;12.57;2.90;;;;;;;19.04;70.83;101583.28;4994902;28;20039;-47
2023/07/06 02:23:27;;;;;;;10.63;3.00;;;;;;;19.04;70.76;101584.19;4994312;28;20045;-45
2023/07/06 02:25:53;;;;;;;10.80;3.05;;;;;;;19.00;70.78;101576.31;4992900;28;20085;-50
2023/07/06 02:28:21;;;;;;;14.07;3.08;;;;;;;18.97;71.45;101581.59;4990602;28;20421;-49
2023/07/06 02:30:48;;;;;;;12.63;3.20;;;;;;;18.94;71.84;101576.38;4990592;28;20527;-44
2023/07/06 02:33:16;;;;;;;10.90;2.85;;;;;;;19.03;71.17;101569.22;4990873;28;20042;-46
2023/07/06 02:35:42;;;;;;;10.95;3.03;;;;;;;19.03;71.28;101570.97;4989324;28;20092;-43
2023/07/06 02:38:08;;;;;;;12.32;3.30;;;;;;;19.04;71.19;101578.88;4990458;28;20031;-44
2023/07/06 02:40:35;;;;;;;8.55;2.80;;;;;;;19.07;70.99;101577.13;4990264;28;20034;-48
2023/07/06 02:43:01;;;;;;;10.63;2.90;;;;;;;19.00;71.22;101578.94;4990639;28;20042;-44
2023/07/06 02:45:27;;;;;;;10.60;2.70;;;;;;;18.99;71.30;101578.06;4990190;28;20035;-43
2023/07/06 02:47:53;;;;;;;11.82;3.45;;;;;;;18.97;71.69;101585.13;4990138;28;20026;-46
2023/07/06 02:50:20;;;;;;;9.70;3.33;;;;;;;18.98;71.90;101588.66;4990297;28;20125;-46
2023/07/06 02:52:45;;;;;;;10.80;3.20;;;;;;;19.01;71.81;101588.63;4990553;28;20108;-43
2023/07/06 02:55:11;;;;;;;12.27;3.40;;;;;;;18.98;72.14;101601.84;4992751;28;20120;-43
2023/07/06 02:57:39;;;;;;;12.80;3.30;;;;;;;19.03;71.95;101600.03;4991964;28;20096;-42
2023/07/06 03:00:11;;;;;;;12.23;3.40;;;;;;;19.01;72.03;101601.84;4993323;28;20030;-48
2023/07/06 03:02:36;;;;;;;10.98;3.10;;;;;;;19.03;72.15;101595.63;4990756;28;20039;-44
2023/07/06 03:05:04;;;;;;;14.00;3.00;;;;;;;18.98;72.14;101599.22;4990625;28;20030;-43
2023/07/06 03:07:29;;;;;;;14.63;3.47;;;;;;;19.01;72.20;101597.44;4990199;28;20060;-43
2023/07/06 03:09:57;;;;;;;10.88;3.22;;;;;;;18.99;72.35;101600.97;4990200;28;20489;-43
2023/07/06 03:12:23;;;;;;;18.77;3.38;;;;;;;19.04;72.15;101599.16;4990866;28;20035;-44
2023/07/06 03:14:49;;;;;;;13.18;3.17;;;;;;;19.01;72.50;101607.13;4992113;28;20054;-45
2023/07/06 03:17:14;;;;;;;10.50;3.20;;;;;;;19.07;72.03;101603.53;4993348;28;20058;-42
2023/07/06 03:19:41;;;;;;;7.88;2.90;;;;;;;19.07;71.69;101608.84;4993253;28;20049;-43
2023/07/06 03:22:07;;;;;;;10.30;2.95;;;;;;;19.05;71.86;101608.84;4992871;28;20073;-43
2023/07/06 03:24:32;;;;;;;10.52;2.80;;;;;;;19.04;71.88;101607.09;4990323;28;20078;-43
2023/07/06 03:26:58;;;;;;;10.02;3.33;;;;;;;19.08;71.75;101615.88;4991466;28;20034;-45
2023/07/06 03:29:23;;;;;;;8.63;3.03;;;;;;;19.04;71.85;101613.25;4994485;28;20038;-44
2023/07/06 03:31:48;;;;;;;10.43;3.28;;;;;;;19.03;71.68;101614.13;4998050;28;20035;-43
2023/07/06 03:34:14;;;;;;;13.80;3.55;;;;;;;19.01;71.92;101610.66;4999794;28;20033;-47
2023/07/06 03:36:39;;;;;;;15.48;3.40;;;;;;;18.99;72.12;101612.41;4994894;28;20037;-44
2023/07/06 03:39:05;;;;;;;10.93;3.35;;;;;;;19.03;71.93;101621.19;4994011;28;20030;-43
2023/07/06 03:41:31;;;;;;;10.77;2.95;;;;;;;18.99;71.92;101615.06;4998298;28;20050;-45
2023/07/06 03:43:58;;;;;;;18.00;3.25;;;;;;;18.92;72.18;101617.78;4996590;28;20066;-43
2023/07/06 03:46:33;;;;;;;12.40;3.22;;;;;;;18.88;72.20;101611.66;4995702;28;20081;-46
2023/07/06 03:49:01;;;;;;;12.15;3.58;;;;;;;18.87;72.30;101619.59;4994059;28;20030;-48
2023/07/06 03:51:27;;;;;;;9.90;2.88;;;;;;;18.87;72.21;101624.88;4994227;28;20034;-45
2023/07/06 03:53:52;;;;;;;12.57;3.40;;;;;;;18.83;72.63;101626.66;4994072;28;20089;-43
2023/07/06 03:56:18;;;;;;;11.48;3.58;;;;;;;18.84;72.67;101631.06;4994303;28;20039;-46
2023/07/06 03:58:44;;;;;;;13.75;3.47;;;;;;;18.85;72.93;101619.59;4992998;28;20068;-45
2023/07/06 04:01:10;;;;;;;10.32;3.38;;;;;;;18.99;72.54;101624.75;4992510;28;20035;-45
2023/07/06 04:03:35;;;;;;;13.63;3.35;;;;;;;18.98;72.49;101623.88;4992278;28;20034;-47
2023/07/06 04:06:03;;;;;;;14.00;3.40;;;;;;;19.02;72.77;101627.38;4993921;28;20089;-43
2023/07/06 04:08:28;;;;;;;12.80;3.50;;;;;;;19.04;72.81;101621.19;4992674;28;20058;-44
2023/07/06 04:10:54;;;;;;;14.15;3.60;;;;;;;19.12;73.02;101630.81;4993244;28;20072;-46
2023/07/06 04:13:19;;;;;;;13.77;3.75;;;;;;;19.09;73.24;101633.50;4993103;28;20042;-44
2023/07/06 04:15:47;;;;;;;14.35;3.75;;;;;;;19.16;73.17;101633.41;4992874;28;20042;-44
2023/07/06 04:18:15;;;;;;;15.18;3.25;;;;;;;19.19;73.42;101635.13;4992747;28;20054;-45
2023/07/06 04:20:41;;;;;;;16.58;3.55;;;;;;;19.25;73.30;101635.97;4992900;28;20547;-46
2023/07/06 04:23:09;;;;;;;14.90;3.60;;;;;;;19.31;73.27;101635.91;4993241;28;20113;-47
2023/07/06 04:25:35;;;;;;;11.32;3.30;;;;;;;19.40;73.32;101633.13;4992417;28;20417;-48
2023/07/06 04:28:06;;;;;;;13.23;3.45;;;;;;;19.38;73.61;101636.72;4992767;28;20110;-48
2023/07/06 04:30:36;;;;;;;12.98;3.70;;;;;;;19.53;73.62;101633.91;4993230;28;20497;-44
2023/07/06 04:33:10;;;;;;;15.93;4.35;;;;;;;19.55;73.85;101633.91;4993406;28;20042;-46
2023/07/06 04:35:36;;;;;;;14.45;3.67;;;;;;;19.69;73.67;101632.88;4992646;28;20034;-44
2023/07/06 04:38:03;;;;;;;14.07;3.78;;;;;;;19.73;73.35;101638.97;4995053;28;20038;-46
2023/07/06 04:40:29;;;;;;;11.82;3.80;;;;;;;19.79;73.02;101633.59;4995027;28;20035;-43
2023/07/06 04:42:55;;;;;;;13.85;3.80;;;;;;;19.76;72.96;101639.81;4994898;28;20377;-43
2023/07/06 04:45:24;;;;;;;15.55;3.97;;;;;;;19.80;72.71;101641.53;4995185;28;20118;-43
2023/07/06 04:47:51;;;;;;;12.35;3.60;;;;;;;19.79;72.53;101641.53;4993564;28;20034;-49
2023/07/06 04:50:22;;;;;;;14.82;4.20;;;;;;;19.75;72.47;101653.94;4993413;28;20096;-45
2023/07/06 04:52:48;;;;;;;19.65;4.20;;;;;;;19.70;73.00;101649.63;4992355;28;20038;-41
2023/07/06 04:55:18;;;;;;;14.85;4.20;;;;;;;19.83;72.83;101654.72;4992711;28;20408;-46
2023/07/06 04:57:44;;;;;;;13.40;4.47;;;;;;;19.94;72.75;101649.31;4992356;28;20036;-42
2023/07/06 05:00:13;;;;;;;13.98;4.05;;;;;;;20.00;72.52;101664.22;4993747;28;20129;-42
2023/07/06 05:02:38;;;;;;;15.70;4.70;;;;;;;20.07;72.33;101657.94;4993240;28;20038;-43
2023/07/06 05:05:05;;;;;;;12.93;4.63;;;;;;;20.14;71.67;101654.31;4992628;28;20443;-44
2023/07/06 05:07:31;;;;;;;15.73;4.78;;;;;;;20.21;71.85;101663.94;4991983;28;20088;-43
2023/07/06 05:09:57;;;;;;;14.90;4.57;;;;;;;20.25;71.55;101663.84;4992086;28;20026;-43
2023/07/06 05:12:24;;;;;;;14.23;4.40;;;;;;;20.42;71.09;101663.69;4992404;28;20041;-44
2023/07/06 05:14:52;;;;;;;13.57;4.43;;;;;;;20.52;70.86;101661.75;4991995;28;20030;-42
2023/07/06 05:17:17;;;;;;;14.50;4.22;;;;;;;20.79;70.89;101664.00;4992731;28;20045;-47
2023/07/06 05:19:42;;;;;;;14.50;4.47;;;;;;;21.36;70.14;101662.13;4991789;28;20043;-43
2023/07/06 05:22:08;;;;;;;14.52;4.70;;;;;;;22.36;66.27;101667.16;4992487;28;20031;-46
2023/07/06 05:24:33;;;;;;;11.20;4.05;;;;;;;23.45;60.95;101664.44;4991572;28;20129;-46
2023/07/06 05:26:59;;;;;;;14.55;4.43;;;;;;;24.43;55.81;101662.50;4992211;28;20038;-44
2023/07/06 05:29:24;;;;;;;15.57;4.78;;;;;;;24.49;56.24;101666.75;4991490;28;20048;-44
2023/07/06 05:31:49;;;;;;;19.25;5.03;;;;;;;25.20;51.75;101667.06;4991570;28;20038;-51
2023/07/06 05:34:15;;;;;;;17.92;5.15;;;;;;;24.85;52.63;101675.34;4992270;28;20046;-48
2023/07/06 05:36:40;;;;;;;15.07;5.35;;;;;;;25.67;50.71;101672.56;4991205;28;20049;-45
2023/07/06 05:39:06;;;;;;;14.82;4.97;;;;;;;26.61;49.46;101682.28;4991086;28;20065;-41
2023/07/06 05:41:32;;;;;;;15.90;4.95;;;;;;;27.00;47.30;101678.00;4991113;28;20092;-48
2023/07/06 05:43:58;;;;;;;14.43;4.95;;;;;;;27.42;46.26;101677.97;4991385;28;20042;-46
2023/07/06 05:46:25;;;;;;;15.35;5.05;;;;;;;26.81;47.84;101679.66;4991477;28;20034;-48
2023/07/06 05:48:51;;;;;;;17.20;5.30;;;;;;;27.06;46.48;101676.88;4990631;28;20069;-50
2023/07/06 05:51:17;;;;;;;13.73;4.72;;;;;;;26.94;45.32;101678.25;4991620;28;20057;-50
2023/07/06 05:53:43;;;;;;;16.60;5.15;;;;;;;27.68;45.14;101670.63;4990321;28;20068;-44
2023/07/06 05:56:09;;;;;;;14.75;4.82;;;;;;;27.49;45.59;101675.88;4991802;28;20041;-45
2023/07/06 05:58:35;;;;;;;14.40;4.53;;;;;;;27.65;45.44;101679.66;4990404;28;20042;-44
2023/07/06 06:01:02;;;;;;;17.52;5.00;;;;;;;27.67;43.76;101682.25;4990941;28;20121;-46
2023/07/06 06:03:29;;;;;;;15.63;4.80;;;;;;;26.91;45.84;101689.06;4990887;28;20501;-49
2023/07/06 06:05:54;;;;;;;15.32;4.68;;;;;;;27.67;44.65;101685.81;4991227;28;20054;-45
2023/07/06 06:08:20;;;;;;;15.43;5.28;;;;;;;27.68;43.54;101684.88;4990713;28;20065;-48
2023/07/06 06:10:45;;;;;;;11.90;4.90;;;;;;;27.41;43.50;101694.09;4990762;28;20393;-51
2023/07/06 06:13:11;;;;;;;14.23;4.32;;;;;;;27.80;44.15;101697.72;4991160;28;20122;-46
2023/07/06 06:15:37;;;;;;;12.07;4.35;;;;;;;27.62;44.15;101697.69;4988846;28;20034;-44
2023/07/06 06:18:04;;;;;;;12.40;4.53;;;;;;;28.02;44.62;101704.78;4989337;28;20034;-45
2023/07/06 06:20:30;;;;;;;13.18;4.32;;;;;;;28.31;43.22;101708.78;4990511;28;20035;-48
2023/07/06 06:22:56;;;;;;;15.88;4.28;;;;;;;28.94;41.36;101704.84;4990683;28;20401;-48
2023/07/06 06:25:22;;;;;;;14.43;4.40;;;;;;;29.32;41.52;101711.84;4990766;28;20034;-48
2023/07/06 06:27:47;;;;;;;11.40;3.83;;;;;;;29.42;41.29;101709.56;4989914;28;20492;-46
2023/07/06 06:30:15;;;;;;;14.82;3.75;;;;;;;29.88;39.66;101704.44;4990630;28;20027;-44
2023/07/06 06:32:40;;;;;;;13.32;3.80;;;;;;;30.04;39.63;101716.13;4990275;28;20046;-45
2023/07/06 06:35:35;;;;;;;9.00;3.42;;;;;;;29.55;39.24;101720.53;4990929;28;20050;-44
2023/07/06 06:38:03;;;;;;;11.20;3.22;;;;;;;29.91;37.47;101717.72;4977091;28;20034;-47
2023/07/06 06:40:29;;;;;;;8.15;2.92;;;;;;;30.19;36.96;101720.69;4989996;28;20034;-49
2023/07/06 06:42:55;;;;;;;11.45;3.10;;;;;;;26.80;44.47;101727.88;4990397;28;20046;-45
2023/07/06 06:45:21;;;;;;;12.02;3.50;;;;;;;25.48;49.43;101736.38;4991507;28;20042;-46
2023/07/06 06:47:46;;;;;;;8.88;3.03;;;;;;;25.50;49.47;101730.97;5009419;28;20411;-45
2023/07/06 06:50:16;;;;;;;9.45;3.10;;;;;;;26.10;48.25;101726.16;5009418;28;20400;-45
2023/07/06 06:52:43;;;;;;;5.90;2.78;;;;;;;26.34;46.04;101728.84;5007882;28;20030;-47
2023/07/06 06:55:09;;;;;;;10.80;3.00;;;;;;;25.94;47.45;101732.97;5009317;28;20453;-48
2023/07/06 06:57:34;;;;;;;8.75;2.65;;;;;;;26.33;47.52;101732.44;5008770;28;20038;-48
2023/07/06 06:59:59;;;;;;;12.90;3.13;;;;;;;25.84;45.79;101739.59;5008886;28;20026;-48
2023/07/06 07:02:25;;;;;;;8.43;2.80;;;;;;;25.53;47.05;101726.41;5010198;28;20118;-45
2023/07/06 07:04:51;;;;;;;8.25;2.70;;;;;;;24.30;50.79;101735.75;5010202;28;20033;-45
2023/07/06 07:07:17;;;;;;;12.93;3.08;;;;;;;24.53;49.87;101730.59;5011155;28;20512;-45
2023/07/06 07:09:46;;;;;;;7.00;3.00;;;;;;;24.89;49.75;101736.56;5009014;28;20057;-48
2023/07/06 07:12:12;;;;;;;10.50;2.70;;;;;;;24.98;48.73;101743.44;5009410;28;20720;-42
2023/07/06 07:14:40;;;;;;;9.02;2.88;;;;;;;25.75;46.84;101726.53;5008983;28;20124;-44
2023/07/06 07:17:07;;;;;;;15.55;2.58;;;;;;;26.23;44.95;101734.53;5009394;28;20452;-45
2023/07/06 07:19:34;;;;;;;14.20;2.90;;;;;;;26.50;45.55;101729.97;5008974;28;20513;-48
2023/07/06 07:22:00;;;;;;;7.55;2.22;;;;;;;27.45;39.67;101723.34;5009565;28;20042;-43
2023/07/06 07:24:29;;;;;;;9.80;2.60;;;;;;;26.64;42.44;101733.88;5007786;28;20125;-48
2023/07/06 07:26:58;;;;;;;5.07;2.22;;;;;;;25.75;44.35;101740.78;5010113;28;20034;-43
2023/07/06 07:29:23;;;;;;;7.85;2.38;;;;;;;25.40;44.88;101750.00;5008711;28;20492;-46
2023/07/06 07:31:50;;;;;;;8.20;2.38;;;;;;;24.37;48.20;101742.63;5008740;28;20026;-44
2023/07/06 07:34:18;;;;;;;6.88;2.78;;;;;;;23.99;49.67;101754.38;5008818;28;20114;-48
2023/07/06 07:36:44;;;;;;;8.25;2.60;;;;;;;24.19;49.03;101748.50;5008851;28;20034;-46
2023/07/06 07:39:10;;;;;;;7.97;2.42;;;;;;;24.36;48.61;101753.34;5009151;28;20088;-50
2023/07/06 07:41:36;;;;;;;6.22;2.30;;;;;;;25.69;46.27;101748.13;5008520;28;20575;-47
2023/07/06 07:44:01;;;;;;;7.38;2.30;;;;;;;26.94;42.66;101753.19;5009544;28;20061;-45
2023/07/06 07:46:29;;;;;;;11.50;2.22;;;;;;;27.71;39.53;101754.38;4996107;28;20037;-45
2023/07/06 07:48:55;;;;;;;7.40;2.20;;;;;;;28.22;40.31;101748.53;4995732;28;20034;-48
2023/07/06 07:51:24;;;;;;;7.57;2.20;;;;;;;28.80;37.44;101743.09;5008958;28;20034;-45
2023/07/06 07:53:52;;;;;;;8.13;2.10;;;;;;;29.64;36.96;101755.00;5008728;28;20041;-45
2023/07/06 07:56:18;;;;;;;7.22;2.22;;;;;;;29.41;37.21;101746.31;5009417;28;20054;-43
2023/07/06 07:58:48;;;;;;;7.45;2.10;;;;;;;28.66;37.99;101748.25;5008055;28;20040;-44
2023/07/06 08:01:16;;;;;;;6.25;2.33;;;;;;;27.65;40.21;101757.34;5009053;28;20038;-46
2023/07/06 08:03:42;;;;;;;7.70;2.67;;;;;;;27.36;42.72;101747.84;5008489;28;20042;-46
2023/07/06 08:06:10;;;;;;;9.18;2.60;;;;;;;27.92;39.84;101749.03;5008929;28;20037;-44
2023/07/06 08:08:37;;;;;;;9.88;2.35;;;;;;;28.70;39.92;101757.88;5008140;28;20054;-47
2023/07/06 08:11:10;;;;;;;10.05;2.20;;;;;;;29.46;37.36;101754.13;5009048;28;20030;-44
2023/07/06 08:13:36;;;;;;;7.78;2.38;;;;;;;29.40;36.54;101755.31;5008798;28;20041;-49
2023/07/06 08:16:03;;;;;;;9.18;2.63;;;;;;;27.40;40.63;101757.50;5009272;28;20029;-46
2023/07/06 08:18:28;;;;;;;8.75;2.50;;;;;;;26.37;41.32;101763.47;5010232;28;20084;-42
2023/07/06 08:20:54;;;;;;;5.95;2.28;;;;;;;25.43;44.50;101768.56;5012595;28;20436;-45
2023/07/06 08:23:22;;;;;;;10.18;2.35;;;;;;;23.99;47.77;101782.78;5012409;28;20554;-45
2023/07/06 08:25:51;;;;;;;8.82;2.75;;;;;;;23.47;49.56;101785.97;5012351;28;20037;-45
2023/07/06 08:28:20;;;;;;;8.25;2.83;;;;;;;23.18;51.27;101794.63;5012383;28;20034;-46
2023/07/06 08:30:45;;;;;;;11.05;3.10;;;;;;;22.75;53.03;101786.81;5011847;28;20092;-48
2023/07/06 08:33:12;;;;;;;9.23;2.50;;;;;;;22.92;52.85;101790.84;5012401;28;20037;-43
2023/07/06 08:35:42;;;;;;;7.75;2.50;;;;;;;22.89;53.12;101788.22;5012186;28;20034;-48
2023/07/06 08:38:08;;;;;;;5.82;2.40;;;;;;;22.49;53.27;101800.63;5012564;28;20061;-44
2023/07/06 08:40:35;;;;;;;6.22;2.28;;;;;;;22.63;53.61;101791.44;5013295;28;20064;-46
2023/07/06 08:43:04;;;;;;;9.07;2.60;;;;;;;22.70;54.06;101793.94;5014216;28;20116;-45
2023/07/06 08:45:44;;;;;;;7.65;2.70;;;;;;;22.66;54.35;101803.78;5014332;28;20041;-43
2023/07/06 08:48:15;;;;;;;9.20;2.58;;;;;;;22.82;53.21;101802.56;5013334;28;20555;-42
2023/07/06 08:50:48;;;;;;;6.15;2.38;;;;;;;22.87;53.13;101808.66;5013875;28;20026;-42
2023/07/06 08:53:14;;;;;;;;;;;;;;;23.10;53.42;101796.63;5015573;28;20030;-43
2023/07/06 08:55:44;;;;;;;4.32;2.20;;;;;;;22.62;52.90;101804.78;5014442;28;19989;-43
2023/07/06 08:58:22;;;;;;;6.97;2.58;;;;;;;22.52;54.95;101813.84;5014055;28;20034;-43
2023/07/06 09:00:48;;;;;;;4.80;2.47;;;;;;;22.75;52.96;101805.41;5014039;28;20099;-44
2023/07/06 09:03:14;;;;;;;9.20;2.40;;;;;;;23.15;52.76;101808.91;5014050;28;20484;-49
2023/07/06 09:05:46;;;;;;;6.55;2.40;;;;;;;22.60;53.74;101811.91;5011793;28;20153;-42
2023/07/06 09:08:15;;;;;;;11.50;2.70;;;;;;;22.55;53.20;101816.44;5012051;28;20095;-47
2023/07/06 09:10:41;;;;;;;5.28;2.50;;;;;;;22.42;54.60;101823.78;5011730;28;20488;-43
2023/07/06 09:13:25;;;;;;;7.10;2.30;;;;;;;22.44;52.50;101824.66;5012268;28;20038;-46
2023/07/06 09:16:01;;;;;;;5.97;2.30;;;;;;;23.15;49.26;101824.84;5012577;28;20025;-43
2023/07/06 09:18:29;;;;;;;5.75;1.98;;;;;;;23.39;46.85;101820.72;5012384;28;20061;-44
2023/07/06 09:20:57;;;;;;;7.85;2.30;;;;;;;23.99;45.68;101826.28;5012420;28;20045;-43
2023/07/06 09:23:24;;;;;;;4.47;2.00;;;;;;;24.01;45.44;101827.13;5011494;28;20034;-43
2023/07/06 09:25:50;;;;;;;8.35;2.40;;;;;;;24.12;44.28;101825.03;5011043;28;20030;-45
2023/07/06 09:28:23;;;;;;;5.03;2.00;;;;;;;24.65;42.10;101823.53;5008614;28;20088;-43
2023/07/06 09:31:04;;;;;;;6.40;1.80;;;;;;;24.87;41.89;101822.88;5010667;28;20542;-48
2023/07/06 09:33:30;;;;;;;3.83;1.80;;;;;;;25.46;41.10;101821.88;5010873;28;20048;-49
2023/07/06 09:35:57;;;;;;;5.38;1.80;;;;;;;25.22;40.84;101824.47;5011330;28;20121;-42
2023/07/06 09:38:24;;;;;;;4.90;2.00;;;;;;;25.40;39.36;101826.53;5010715;28;20480;-44
2023/07/06 09:40:50;;;;;;;5.88;1.60;;;;;;;26.03;37.97;101833.31;5010907;28;20037;-48
2023/07/06 09:43:16;;;;;;;5.15;1.60;;;;;;;25.92;37.49;101831.03;5011073;28;20066;-45
2023/07/06 09:45:42;;;;;;;3.38;1.45;;;;;;;25.09;39.03;101836.47;5010467;28;20069;-46
2023/07/06 09:48:36;;;;;;;3.45;1.23;;;;;;;24.96;39.39;101831.50;5010421;28;20405;-48
2023/07/06 09:51:14;;;;;;;3.92;1.60;;;;;;;25.48;38.24;101829.84;5010537;28;20034;-46
2023/07/06 09:54:03;;;;;;;4.13;1.50;;;;;;;24.92;37.33;101827.19;5010764;28;20046;-44
2023/07/06 09:56:29;;;;;;;4.53;1.55;;;;;;;24.95;37.23;101829.75;5010837;28;20037;-46
2023/07/06 09:58:56;;;;;;;2.88;1.25;;;;;;;24.96;36.07;101844.84;5010328;28;20382;-44
2023/07/06 10:01:39;;;;;;;3.42;1.10;;;;;;;25.17;37.43;101837.97;5010686;28;20088;-50
2023/07/06 10:04:26;;;;;;;3.00;1.25;;;;;;;25.42;36.56;101841.59;5010980;28;20121;-46
2023/07/06 10:06:55;;;;;;;3.38;1.27;;;;;;;25.50;35.30;101843.13;5010705;28;20037;-45
2023/07/06 10:09:37;;;;;;;3.85;1.35;;;;;;;25.70;34.96;101846.91;5010563;28;20038;-48
2023/07/06 10:12:28;;;;;;;4.72;1.40;;;;;;;25.90;35.64;101845.34;5009537;28;20045;-48
2023/07/06 10:14:54;;;;;;;4.50;1.15;;;;;;;25.79;33.98;101854.63;4966550;28;20029;-45
2023/07/06 10:17:39;;;;;;;3.33;1.10;;;;;;;25.14;32.57;101840.72;5010353;28;20045;-44
2023/07/06 10:20:12;;;;;;;2.70;0.90;;;;;;;25.03;33.14;101859.75;5010406;28;20026;-46
2023/07/06 10:22:59;;;;;;;3.20;0.90;;;;;;;25.23;34.46;101847.56;5010044;28;20049;-46
2023/07/06 10:25:50;;;;;;;2.53;1.10;;;;;;;24.93;33.15;101858.28;5010472;28;20041;-42
2023/07/06 10:28:23;;;;;;;5.20;1.00;;;;;;;24.66;34.09;101857.28;5009754;28;20030;-45
2023/07/06 10:30:53;;;;;;;2.75;1.00;;;;;;;24.50;35.88;101868.44;5009591;28;20034;-46
2023/07/06 10:33:27;;;;;;;3.65;0.90;;;;;;;25.03;35.27;101854.41;5008947;28;20504;-47
2023/07/06 10:35:53;;;;;;;6.00;1.10;;;;;;;25.10;33.25;101859.56;5010040;28;20375;-46
2023/07/06 10:38:20;;;;;;;4.28;1.15;;;;;;;24.76;34.99;101865.91;5009554;28;20096;-45
2023/07/06 10:41:10;;;;;;;5.53;1.25;;;;;;;24.56;34.79;101866.47;5008809;28;20490;-48
2023/07/06 10:43:38;;;;;;;3.28;1.20;;;;;;;24.57;33.45;101878.00;4997614;28;20041;-44
2023/07/06 10:46:27;;;;;;;2.25;1.00;;;;;;;24.82;33.32;101856.84;5009963;28;20431;-44
2023/07/06 10:48:59;;;;;;;4.15;1.23;;;;;;;25.01;32.87;101856.25;5008869;28;20113;-44
2023/07/06 10:51:27;;;;;;;1.75;1.05;;;;;;;24.27;34.96;101861.94;5009828;28;20060;-44
2023/07/06 10:54:08;;;;;;;3.50;1.10;;;;;;;24.40;33.92;101862.47;5009900;28;20059;-48
2023/07/06 10:56:46;;;;;;;2.20;1.02;;;;;;;24.31;33.97;101869.88;5010477;28;20038;-42
2023/07/06 10:59:18;;;;;;;2.97;0.90;;;;;;;24.93;33.90;101868.09;5010376;28;20038;-45
2023/07/06 11:01:45;;;;;;;1.80;0.80;;;;;;;24.69;32.74;101880.31;5008829;28;20050;-44
2023/07/06 11:04:39;;;;;;;3.50;0.90;;;;;;;24.51;32.88;101880.84;5011228;28;20026;-44
2023/07/06 11:07:08;;;;;;;3.05;0.90;;;;;;;24.94;32.21;101870.72;5009758;28;20038;-43
2023/07/06 11:09:47;;;;;;;3.60;1.00;;;;;;;24.40;33.87;101881.13;5010271;28;20528;-44
2023/07/06 11:12:19;;;;;;;2.28;0.90;;;;;;;24.77;33.50;101885.41;5010898;28;20038;-43
2023/07/06 11:14:45;;;;;;;4.30;1.00;;;;;;;24.88;33.08;101884.19;5010532;28;20025;-46
2023/07/06 11:17:36;;;;;;;3.38;1.00;;;;;;;25.24;31.99;101886.69;5012026;28;20038;-47
2023/07/06 11:20:10;;;;;;;2.85;1.00;;;;;;;24.71;31.43;101885.59;5011288;28;20084;-51
2023/07/06 11:22:37;;;;;;;2.08;1.00;;;;;;;24.36;32.54;101889.28;5011566;28;20497;-43
2023/07/06 11:25:03;;;;;;;3.03;1.10;;;;;;;24.91;32.30;101885.91;5011889;28;20504;-46
2023/07/06 11:27:35;;;;;;;2.08;1.05;;;;;;;24.63;32.62;101891.16;5010744;28;20085;-46
2023/07/06 11:30:18;;;;;;;2.00;0.98;;;;;;;25.15;31.07;101890.50;5009936;28;20034;-45
2023/07/06 11:32:47;;;;;;;2.15;1.00;;;;;;;25.04;32.02;101884.63;5009684;28;20034;-47